createdAt,value
2022-10-11T00:00:52.428Z,5.80
2022-10-11T00:04:11.003Z,5.78
2022-10-11T00:07:16.329Z,5.05
2022-10-11T00:10:22.841Z,4.82
2022-10-11T00:13:31.913Z,4.43
2022-10-11T00:16:41.664Z,3.10
2022-10-11T00:19:48.929Z,2.88
2022-10-11T00:22:58.077Z,2.13
2022-10-11T00:26:08.753Z,1.80
2022-10-11T00:29:20.466Z,1.40
2022-10-11T00:32:26.983Z,1.37
2022-10-11T00:35:32.553Z,1.65
2022-10-11T00:38:40.734Z,1.50
2022-10-11T00:41:47.925Z,1.10
2022-10-11T00:45:15.850Z,1.33
2022-10-11T00:48:35.736Z,1.50
2022-10-11T00:51:58.729Z,1.40
2022-10-11T00:55:15.397Z,1.77
2022-10-11T00:58:22.042Z,1.38
2022-10-11T01:01:31.266Z,1.25
2022-10-11T01:04:38.987Z,1.30
2022-10-11T01:07:44.439Z,1.15
2022-10-11T01:10:50.944Z,2.05
2022-10-11T01:14:07.610Z,1.98
2022-10-11T01:17:23.917Z,1.58
2022-10-11T01:20:46.932Z,1.70
2022-10-11T01:24:06.013Z,1.95
2022-10-11T01:27:32.793Z,1.67
2022-10-11T01:30:42.610Z,0.85
2022-10-11T01:33:52.143Z,2.42
2022-10-11T01:37:02.693Z,2.08
2022-10-11T01:40:17.568Z,1.88
2022-10-11T01:43:24.746Z,1.80
2022-10-11T01:46:33.789Z,1.60
2022-10-11T01:49:42.133Z,1.95
2022-10-11T01:52:47.514Z,1.50
2022-10-11T01:55:57.100Z,1.42
2022-10-11T01:59:16.873Z,1.88
2022-10-11T02:02:35.502Z,1.77
2022-10-11T02:05:45.368Z,1.15
2022-10-11T02:08:56.601Z,2.55
2022-10-11T02:12:16.967Z,1.90
2022-10-11T02:15:24.552Z,1.60
2022-10-11T02:18:36.600Z,1.50
2022-10-11T02:24:49.445Z,1.60
2022-10-11T02:28:05.372Z,2.50
2022-10-11T02:31:17.822Z,1.60
2022-10-11T02:34:29.759Z,1.77
2022-10-11T02:37:39.782Z,2.03
2022-10-11T02:40:47.950Z,2.65
2022-10-11T02:44:13.677Z,2.35
2022-10-11T02:47:22.944Z,2.13
2022-10-11T02:50:33.478Z,1.70
2022-10-11T02:53:38.936Z,1.27
2022-10-11T02:56:43.892Z,1.88
2022-10-11T02:59:49.133Z,2.97
2022-10-11T03:02:55.370Z,1.58
2022-10-11T03:06:08.671Z,1.50
2022-10-11T03:09:15.145Z,1.33
2022-10-11T03:12:21.858Z,1.75
2022-10-11T03:15:28.996Z,2.80
2022-10-11T03:18:34.573Z,1.88
2022-10-11T03:21:43.574Z,2.28
2022-10-11T03:25:03.723Z,1.17
2022-10-11T03:28:10.009Z,2.05
2022-10-11T03:31:18.741Z,1.67
2022-10-11T03:34:44.574Z,1.80
2022-10-11T03:37:59.744Z,1.25
2022-10-11T03:41:04.823Z,1.48
2022-10-11T03:44:11.283Z,1.88
2022-10-11T03:47:16.626Z,1.27
2022-10-11T03:50:22.602Z,1.80
2022-10-11T03:53:55.196Z,2.00
2022-10-11T03:57:09.895Z,2.30
2022-10-11T04:00:34.919Z,1.70
2022-10-11T04:03:48.894Z,2.13
2022-10-11T04:07:01.396Z,1.80
2022-10-11T04:10:14.749Z,2.08
2022-10-11T04:13:46.036Z,1.85
2022-10-11T04:16:52.702Z,1.90
2022-10-11T04:20:00.737Z,1.52
2022-10-11T04:23:28.188Z,1.75
2022-10-11T04:26:35.663Z,1.70
2022-10-11T04:29:44.011Z,1.77
2022-10-11T04:32:49.190Z,1.80
2022-10-11T04:35:59.338Z,1.40
2022-10-11T04:43:09.614Z,1.60
2022-10-11T04:46:19.138Z,1.95
2022-10-11T04:49:24.828Z,1.38
2022-10-11T04:52:32.308Z,1.35
2022-10-11T04:55:37.544Z,1.98
2022-10-11T04:58:48.276Z,1.67
2022-10-11T05:02:00.823Z,1.73
2022-10-11T05:05:06.684Z,1.52
2022-10-11T05:08:14.580Z,1.70
2022-10-11T05:11:30.224Z,1.77
2022-10-11T05:14:41.287Z,1.80
2022-10-11T05:17:50.941Z,1.58
2022-10-11T05:21:02.043Z,1.60
2022-10-11T05:24:07.838Z,2.33
2022-10-11T05:27:13.232Z,2.10
2022-10-11T05:30:18.991Z,1.98
2022-10-11T05:33:28.631Z,2.65
2022-10-11T05:36:33.984Z,2.50
2022-10-11T05:39:38.906Z,2.05
2022-10-11T05:42:47.122Z,2.45
2022-10-11T05:45:52.190Z,2.65
2022-10-11T05:49:02.138Z,2.25
2022-10-11T05:52:09.352Z,2.05
2022-10-11T05:55:14.882Z,2.55
2022-10-11T05:58:20.772Z,1.77
2022-10-11T06:01:29.788Z,2.35
2022-10-11T06:04:38.697Z,2.08
2022-10-11T06:07:44.822Z,2.65
2022-10-11T06:10:49.715Z,2.65
2022-10-11T06:13:56.112Z,2.42
2022-10-11T06:17:01.005Z,2.17
2022-10-11T06:20:10.233Z,2.25
2022-10-11T06:23:15.188Z,2.22
2022-10-11T06:26:20.843Z,3.08
2022-10-11T06:29:25.727Z,3.70
2022-10-11T06:32:31.136Z,2.47
2022-10-11T06:35:38.725Z,2.47
2022-10-11T06:38:45.548Z,2.38
2022-10-11T06:41:50.548Z,2.40
2022-10-11T06:44:55.807Z,2.90
2022-10-11T06:48:02.005Z,2.92
2022-10-11T06:51:10.364Z,2.60
2022-10-11T06:54:15.775Z,2.50
2022-10-11T06:57:21.314Z,2.28
2022-10-11T07:00:26.810Z,2.97
2022-10-11T07:03:32.345Z,2.45
2022-10-11T07:06:41.513Z,2.75
2022-10-11T07:09:50.103Z,2.88
2022-10-11T07:12:55.050Z,3.30
2022-10-11T07:16:03.422Z,2.97
2022-10-11T07:19:09.466Z,3.17
2022-10-11T07:22:17.587Z,2.80
2022-10-11T07:25:22.543Z,2.42
2022-10-11T07:28:33.356Z,2.10
2022-10-11T07:31:39.494Z,2.22
2022-10-11T07:34:44.863Z,3.83
2022-10-11T07:37:53.502Z,2.63
2022-10-11T07:40:59.044Z,2.05
2022-10-11T07:44:04.598Z,1.92
2022-10-11T07:47:11.444Z,1.90
2022-10-11T07:50:18.073Z,2.10
2022-10-11T07:53:26.827Z,2.60
2022-10-11T07:56:31.951Z,2.67
2022-10-11T07:59:37.434Z,2.53
2022-10-11T08:02:44.707Z,1.77
2022-10-11T08:05:53.580Z,2.05
2022-10-11T08:09:02.677Z,2.72
2022-10-11T08:12:08.650Z,1.67
2022-10-11T08:15:15.492Z,2.70
2022-10-11T08:18:21.756Z,1.67
2022-10-11T08:21:27.609Z,2.25
2022-10-11T08:24:38.461Z,2.05
2022-10-11T08:27:43.624Z,3.03
2022-10-11T08:30:52.777Z,1.95
2022-10-11T08:33:58.474Z,1.42
2022-10-11T08:37:06.443Z,2.90
2022-10-11T08:40:17.440Z,1.75
2022-10-11T08:43:30.335Z,1.85
2022-10-11T08:49:44.014Z,2.25
2022-10-11T08:52:53.394Z,1.92
2022-10-11T08:56:02.415Z,2.13
2022-10-11T08:59:12.316Z,2.63
2022-10-11T09:02:23.116Z,1.73
2022-10-11T09:05:30.513Z,2.30
2022-10-11T09:08:48.458Z,1.90
2022-10-11T09:12:02.096Z,2.45
2022-10-11T09:15:20.034Z,1.95
2022-10-11T09:18:41.277Z,2.65
2022-10-11T09:21:50.404Z,2.55
2022-10-11T09:25:01.255Z,2.38
2022-10-11T09:28:23.405Z,2.13
2022-10-11T09:31:31.401Z,1.95
2022-10-11T09:34:40.786Z,2.00
2022-10-11T09:37:49.726Z,2.55
2022-10-11T09:41:02.365Z,2.10
2022-10-11T09:44:09.897Z,3.03
2022-10-11T09:47:20.059Z,1.58
2022-10-11T09:50:26.392Z,1.90
2022-10-11T09:53:46.853Z,2.70
2022-10-11T09:56:52.393Z,1.80
2022-10-11T10:00:02.300Z,2.20
2022-10-11T10:03:29.762Z,2.78
2022-10-11T10:06:38.317Z,2.30
2022-10-11T10:09:44.608Z,2.22
2022-10-11T10:12:56.220Z,2.58
2022-10-11T10:16:04.492Z,2.05
2022-10-11T10:19:21.542Z,2.10
2022-10-11T10:22:28.661Z,2.50
2022-10-11T10:25:42.334Z,1.90
2022-10-11T10:28:58.799Z,1.98
2022-10-11T10:32:14.288Z,1.60
2022-10-11T10:35:28.916Z,2.05
2022-10-11T10:38:37.594Z,2.17
2022-10-11T10:41:43.031Z,3.17
2022-10-11T10:44:54.764Z,1.50
2022-10-11T10:48:07.256Z,2.50
2022-10-11T10:51:20.634Z,1.85
2022-10-11T10:54:30.155Z,2.60
2022-10-11T10:57:39.620Z,1.40
2022-10-11T11:00:46.383Z,1.63
2022-10-11T11:03:56.650Z,2.38
2022-10-11T11:07:09.838Z,2.58
2022-10-11T11:10:18.590Z,2.22
2022-10-11T11:13:28.800Z,1.98
2022-10-11T11:16:42.698Z,2.08
2022-10-11T11:19:56.435Z,2.22
2022-10-11T11:23:10.771Z,2.38
2022-10-11T11:26:19.555Z,2.20
2022-10-11T11:29:32.353Z,1.92
2022-10-11T11:32:45.715Z,2.83
2022-10-11T11:35:55.490Z,2.05
2022-10-11T11:39:05.371Z,2.13
2022-10-11T11:42:15.287Z,2.20
2022-10-11T11:45:24.687Z,2.25
2022-10-11T11:48:30.872Z,2.58
2022-10-11T11:51:41.330Z,2.65
2022-10-11T11:54:54.320Z,2.40
2022-10-11T11:58:06.921Z,2.72
2022-10-11T12:01:18.764Z,1.75
2022-10-11T12:04:28.473Z,2.13
2022-10-11T12:07:34.295Z,2.03
2022-10-11T12:10:58.119Z,2.15
2022-10-11T12:14:17.612Z,1.90
2022-10-11T12:17:23.887Z,2.17
2022-10-11T12:20:37.198Z,2.08
2022-10-11T12:23:49.342Z,2.08
2022-10-11T12:27:01.433Z,2.60
2022-10-11T12:30:28.505Z,2.17
2022-10-11T12:33:49.256Z,2.00
2022-10-11T12:36:56.983Z,2.33
2022-10-11T12:40:05.589Z,1.90
2022-10-11T12:43:29.570Z,1.90
2022-10-11T12:46:45.807Z,2.70
2022-10-11T12:49:56.221Z,2.95
2022-10-11T12:53:05.709Z,1.95
2022-10-11T12:56:12.674Z,1.50
2022-10-11T12:59:25.790Z,1.92
2022-10-11T13:02:33.873Z,2.17
2022-10-11T13:05:52.385Z,1.40
2022-10-11T13:09:00.311Z,2.08
2022-10-11T13:12:07.154Z,1.40
2022-10-11T13:15:17.682Z,1.17
2022-10-11T13:18:25.378Z,1.10
2022-10-11T13:21:36.578Z,0.98
2022-10-11T13:24:43.212Z,1.10
2022-10-11T13:27:48.714Z,1.55
2022-10-11T13:30:58.394Z,1.98
2022-10-11T13:34:04.019Z,1.73
2022-10-11T13:37:10.167Z,1.42
2022-10-11T13:40:17.303Z,3.28
2022-10-11T13:43:28.915Z,1.98
2022-10-11T13:46:41.835Z,2.33
2022-10-11T13:49:53.791Z,1.63
2022-10-11T13:52:59.628Z,1.88
2022-10-11T13:56:09.508Z,1.77
2022-10-11T13:59:16.200Z,1.40
2022-10-11T14:02:29.757Z,1.63
2022-10-11T14:05:37.058Z,1.80
2022-10-11T14:08:47.942Z,1.85
2022-10-11T14:11:54.596Z,1.38
2022-10-11T14:15:03.194Z,1.50
2022-10-11T14:18:23.162Z,1.60
2022-10-11T14:21:37.026Z,1.63
2022-10-11T14:24:44.135Z,1.73
2022-10-11T14:27:54.675Z,1.80
2022-10-11T14:30:59.760Z,1.33
2022-10-11T14:34:05.648Z,1.65
2022-10-11T14:37:15.868Z,1.40
2022-10-11T14:40:26.714Z,1.75
2022-10-11T14:43:33.790Z,1.63
2022-10-11T14:46:40.984Z,1.73
2022-10-11T14:49:46.553Z,1.75
2022-10-11T14:52:55.246Z,1.90
2022-10-11T14:56:00.714Z,1.90
2022-10-11T14:59:09.762Z,1.65
2022-10-11T15:02:17.089Z,1.85
2022-10-11T15:05:22.641Z,1.77
2022-10-11T15:08:33.374Z,1.20
2022-10-11T15:11:47.246Z,1.77
2022-10-11T15:14:52.836Z,1.40
2022-10-11T15:17:59.446Z,1.52
2022-10-11T15:21:06.761Z,1.92
2022-10-11T15:24:16.802Z,1.85
2022-10-11T15:27:29.217Z,1.60
2022-10-11T15:30:41.136Z,1.70
2022-10-11T15:33:48.994Z,1.67
2022-10-11T15:36:56.573Z,1.38
2022-10-11T15:40:07.157Z,1.67
2022-10-11T15:43:13.260Z,1.58
2022-10-11T15:46:20.399Z,2.10
2022-10-11T15:49:30.495Z,1.10
2022-10-11T15:52:39.494Z,1.08
2022-10-11T15:55:49.964Z,1.08
2022-10-11T15:58:58.967Z,1.40
2022-10-11T16:02:07.149Z,1.52
2022-10-11T16:05:15.934Z,1.10
2022-10-11T16:08:24.556Z,1.40
2022-10-11T16:11:33.061Z,1.63
2022-10-11T16:14:47.082Z,1.25
2022-10-11T16:17:52.735Z,1.95
2022-10-11T16:20:59.149Z,1.67
2022-10-11T16:24:06.419Z,1.60
2022-10-11T16:27:18.678Z,2.10
2022-10-11T16:30:24.335Z,2.20
2022-10-11T16:33:31.978Z,2.10
2022-10-11T16:36:40.831Z,1.83
2022-10-11T16:39:48.697Z,2.00
2022-10-11T16:43:07.373Z,2.35
2022-10-11T16:46:13.410Z,1.90
2022-10-11T16:49:19.251Z,2.10
2022-10-11T16:55:43.641Z,2.67
2022-10-11T16:58:52.576Z,3.08
2022-10-11T17:01:58.177Z,2.35
2022-10-11T17:05:06.899Z,2.25
2022-10-11T17:08:11.983Z,2.53
2022-10-11T17:11:19.956Z,2.50
2022-10-11T17:14:31.631Z,1.70
2022-10-11T17:17:37.613Z,3.33
2022-10-11T17:20:42.669Z,2.42
2022-10-11T17:23:50.694Z,2.25
2022-10-11T17:27:05.500Z,3.10
2022-10-11T17:30:14.741Z,2.17
2022-10-11T17:33:20.951Z,2.80
2022-10-11T17:36:28.056Z,3.20
2022-10-11T17:39:33.098Z,2.40
2022-10-11T17:42:41.043Z,2.60
2022-10-11T17:45:56.755Z,2.78
2022-10-11T17:49:05.989Z,3.05
2022-10-11T17:52:11.951Z,2.95
2022-10-11T17:55:20.081Z,4.07
2022-10-11T17:58:28.132Z,2.60
2022-10-11T18:01:36.913Z,3.05
2022-10-11T18:04:42.533Z,2.75
2022-10-11T18:07:48.808Z,3.15
2022-10-11T18:10:56.348Z,3.20
2022-10-11T18:14:03.679Z,3.88
2022-10-11T18:17:15.593Z,3.47
2022-10-11T18:20:21.659Z,2.95
2022-10-11T18:23:28.642Z,3.72
2022-10-11T18:26:37.399Z,2.70
2022-10-11T18:29:43.795Z,2.60
2022-10-11T18:32:51.981Z,3.08
2022-10-11T18:36:02.902Z,4.38
2022-10-11T18:39:09.625Z,3.00
2022-10-11T18:42:27.993Z,3.10
2022-10-11T18:45:34.479Z,2.83
2022-10-11T18:48:45.296Z,3.28
2022-10-11T18:51:51.409Z,3.00
2022-10-11T18:54:56.865Z,3.20
2022-10-11T18:58:02.535Z,3.53
2022-10-11T19:01:08.874Z,2.83
2022-10-11T19:04:19.092Z,3.05
2022-10-11T19:07:24.462Z,2.88
2022-10-11T19:10:30.197Z,3.03
2022-10-11T19:13:35.668Z,2.80
2022-10-11T19:16:44.268Z,2.60
2022-10-11T19:19:52.282Z,2.75
2022-10-11T19:23:03.675Z,2.83
2022-10-11T19:26:09.489Z,3.03
2022-10-11T19:29:18.843Z,3.03
2022-10-11T19:32:25.295Z,2.95
2022-10-11T19:35:35.730Z,2.78
2022-10-11T19:38:46.769Z,3.42
2022-10-11T19:41:52.529Z,2.83
2022-10-11T19:44:59.792Z,2.83
2022-10-11T19:48:06.815Z,2.58
2022-10-11T19:51:15.758Z,3.40
2022-10-11T19:54:21.938Z,2.75
2022-10-11T19:57:27.097Z,2.85
2022-10-11T20:00:33.827Z,2.97
2022-10-11T20:03:39.637Z,3.00
2022-10-11T20:06:48.097Z,2.67
2022-10-11T20:10:02.101Z,2.65
2022-10-11T20:13:11.942Z,3.63
2022-10-11T20:16:17.811Z,2.45
2022-10-11T20:19:29.285Z,2.72
2022-10-11T20:26:05.747Z,3.20
2022-10-11T20:29:13.508Z,3.25
2022-10-11T20:32:20.738Z,3.58
2022-10-11T20:35:26.740Z,2.83
2022-10-11T20:38:34.386Z,3.08
2022-10-11T20:45:13.403Z,2.97
2022-10-11T20:48:23.763Z,2.85
2022-10-11T20:51:32.789Z,3.28
2022-10-11T20:54:43.835Z,3.15
2022-10-11T20:57:52.944Z,3.42
2022-10-11T21:00:59.648Z,2.70
2022-10-11T21:04:09.273Z,2.53
2022-10-11T21:07:14.578Z,2.22
2022-10-11T21:10:25.707Z,3.00
2022-10-11T21:13:34.056Z,2.85
2022-10-11T21:16:40.960Z,2.75
2022-10-11T21:19:48.372Z,2.50
2022-10-11T21:23:03.008Z,2.80
2022-10-11T21:26:20.380Z,2.75
2022-10-11T21:29:30.892Z,2.90
2022-10-11T21:32:38.866Z,2.40
2022-10-11T21:35:44.863Z,2.70
2022-10-11T21:38:52.735Z,2.67
2022-10-11T21:41:58.599Z,3.03
2022-10-11T21:45:13.969Z,2.35
2022-10-11T21:48:26.217Z,2.58
2022-10-11T21:51:52.741Z,2.80
2022-10-11T21:55:00.472Z,2.50
2022-10-11T21:58:17.305Z,2.50
2022-10-11T22:01:29.100Z,2.13
2022-10-11T22:04:35.883Z,2.63
2022-10-11T22:07:42.612Z,2.80
2022-10-11T22:10:56.581Z,2.80
2022-10-11T22:14:03.867Z,2.65
2022-10-11T22:17:11.932Z,2.33
2022-10-11T22:20:21.966Z,3.05
2022-10-11T22:23:29.567Z,2.72
2022-10-11T22:26:42.646Z,2.60
2022-10-11T22:29:59.474Z,2.92
2022-10-11T22:33:08.464Z,2.70
2022-10-11T22:36:16.856Z,3.17
2022-10-11T22:39:22.701Z,2.58
2022-10-11T22:42:30.134Z,3.30
2022-10-11T22:45:35.652Z,3.83
2022-10-11T22:48:43.500Z,2.33
2022-10-11T22:51:49.832Z,2.38
2022-10-11T22:54:55.017Z,2.25
2022-10-11T22:58:00.476Z,2.45
2022-10-11T23:01:09.588Z,2.95
2022-10-11T23:07:35.247Z,2.88
2022-10-11T23:10:43.266Z,3.05
2022-10-11T23:13:50.722Z,2.60
2022-10-11T23:16:57.940Z,2.67
2022-10-11T23:20:06.854Z,2.50
2022-10-11T23:23:12.636Z,2.95
2022-10-11T23:26:20.884Z,3.80
2022-10-11T23:29:26.321Z,2.70
2022-10-11T23:32:31.459Z,2.40
2022-10-11T23:35:40.331Z,2.55
2022-10-11T23:38:48.973Z,2.42
2022-10-11T23:41:54.317Z,3.03
2022-10-11T23:44:59.468Z,2.65
2022-10-11T23:48:14.294Z,2.80
2022-10-11T23:51:25.115Z,2.80
2022-10-11T23:54:31.665Z,2.97
2022-10-11T23:57:37.234Z,2.65
